createdAt,value
2019-05-11T00:00:57.144Z,1009.79
2019-05-11T00:01:57.151Z,1009.80
2019-05-11T00:02:57.125Z,1009.76
2019-05-11T00:03:57.126Z,1009.78
2019-05-11T00:04:57.104Z,1009.74
2019-05-11T00:05:57.108Z,1009.75
2019-05-11T00:06:57.121Z,1009.74
2019-05-11T00:07:57.074Z,1009.79
2019-05-11T00:08:57.072Z,1009.79
2019-05-11T00:09:58.573Z,1009.78
2019-05-11T00:10:57.047Z,1009.77
2019-05-11T00:11:57.034Z,1009.72
2019-05-11T00:12:57.103Z,1009.78
2019-05-11T00:13:57.012Z,1009.72
2019-05-11T00:14:57.009Z,1009.76
2019-05-11T00:15:56.999Z,1009.72
2019-05-11T00:16:56.980Z,1009.71
2019-05-11T00:17:56.998Z,1009.73
2019-05-11T00:18:56.964Z,1009.76
2019-05-11T00:19:56.952Z,1009.77
2019-05-11T00:20:56.958Z,1009.77
2019-05-11T00:21:56.930Z,1009.80
2019-05-11T00:22:56.923Z,1009.79
2019-05-11T00:23:56.929Z,1009.77
2019-05-11T00:24:56.904Z,1009.70
2019-05-11T00:25:56.895Z,1009.72
2019-05-11T00:26:56.959Z,1009.72
2019-05-11T00:27:56.867Z,1009.72
2019-05-11T00:28:56.856Z,1009.71
2019-05-11T00:29:56.851Z,1009.69
2019-05-11T00:30:56.835Z,1009.68
2019-05-11T00:31:56.829Z,1009.72
2019-05-11T00:32:56.839Z,1009.69
2019-05-11T00:33:56.811Z,1009.69
2019-05-11T00:34:56.796Z,1009.69
2019-05-11T00:35:56.791Z,1009.66
2019-05-11T00:36:56.774Z,1009.68
2019-05-11T00:37:56.827Z,1009.66
2019-05-11T00:38:56.774Z,1009.64
2019-05-11T00:40:12.087Z,1009.69
2019-05-11T00:40:57.735Z,1009.67
2019-05-11T00:41:56.725Z,1009.67
2019-05-11T00:42:56.716Z,1009.69
2019-05-11T00:43:56.738Z,1009.70
2019-05-11T00:44:56.694Z,1009.70
2019-05-11T00:45:56.679Z,1009.71
2019-05-11T00:46:56.669Z,1009.69
2019-05-11T00:47:56.661Z,1009.65
2019-05-11T00:48:56.653Z,1009.61
2019-05-11T00:49:56.665Z,1009.64
2019-05-11T00:50:56.639Z,1009.66
2019-05-11T00:51:56.623Z,1009.64
2019-05-11T00:52:56.615Z,1009.67
2019-05-11T00:53:56.595Z,1009.70
2019-05-11T00:54:56.588Z,1009.69
2019-05-11T00:55:56.633Z,1009.71
2019-05-11T00:56:56.574Z,1009.66
2019-05-11T00:57:56.571Z,1009.63
2019-05-11T00:58:56.549Z,1009.61
2019-05-11T00:59:56.547Z,1009.62
2019-05-11T01:00:56.534Z,1009.61
2019-05-11T01:01:56.558Z,1009.59
2019-05-11T01:02:56.539Z,1009.59
2019-05-11T01:03:56.522Z,1009.56
2019-05-11T01:04:56.493Z,1009.58
2019-05-11T01:05:56.483Z,1009.62
2019-05-11T01:06:56.467Z,1009.62
2019-05-11T01:07:56.487Z,1009.61
2019-05-11T01:08:56.450Z,1009.55
2019-05-11T01:09:56.435Z,1009.52
2019-05-11T01:10:56.428Z,1009.56
2019-05-11T01:11:56.419Z,1009.52
2019-05-11T01:12:56.397Z,1009.53
2019-05-11T01:13:56.419Z,1009.52
2019-05-11T01:14:56.377Z,1009.48
2019-05-11T01:15:56.367Z,1009.44
2019-05-11T01:16:56.359Z,1009.47
2019-05-11T01:17:56.344Z,1009.43
2019-05-11T01:18:56.357Z,1009.47
2019-05-11T01:19:56.350Z,1009.46
2019-05-11T01:20:56.324Z,1009.46
2019-05-11T01:21:56.307Z,1009.51
2019-05-11T01:22:56.300Z,1009.53
2019-05-11T01:23:56.290Z,1009.50
2019-05-11T01:24:56.278Z,1009.49
2019-05-11T01:25:56.313Z,1009.48
2019-05-11T01:26:56.262Z,1009.51
2019-05-11T01:27:56.274Z,1009.51
2019-05-11T01:28:56.234Z,1009.50
2019-05-11T01:29:56.227Z,1009.43
2019-05-11T01:30:56.214Z,1009.44
2019-05-11T01:31:56.232Z,1009.44
2019-05-11T01:32:56.209Z,1009.45
2019-05-11T01:33:56.183Z,1009.49
2019-05-11T01:34:56.173Z,1009.53
2019-05-11T01:35:56.163Z,1009.56
2019-05-11T01:36:56.147Z,1009.54
2019-05-11T01:37:56.160Z,1009.54
2019-05-11T01:38:56.182Z,1009.51
2019-05-11T01:39:56.121Z,1009.51
2019-05-11T01:40:58.691Z,1009.53
2019-05-11T01:41:56.109Z,1009.52
2019-05-11T01:42:56.088Z,1009.56
2019-05-11T01:43:56.101Z,1009.53
2019-05-11T01:44:56.088Z,1009.59
2019-05-11T01:45:56.053Z,1009.54
2019-05-11T01:46:56.050Z,1009.54
2019-05-11T01:47:56.068Z,1009.53
2019-05-11T01:48:56.022Z,1009.52
2019-05-11T01:49:56.042Z,1009.43
2019-05-11T01:50:56.006Z,1009.46
2019-05-11T01:51:55.996Z,1009.46
2019-05-11T01:52:55.980Z,1009.42
2019-05-11T01:53:55.971Z,1009.47
2019-05-11T01:54:55.966Z,1009.47
2019-05-11T01:55:55.964Z,1009.47
2019-05-11T01:56:55.963Z,1009.52
2019-05-11T01:57:55.937Z,1009.47
2019-05-11T01:58:55.928Z,1009.48
2019-05-11T01:59:55.917Z,1009.46
2019-05-11T02:00:55.999Z,1009.49
2019-05-11T02:01:55.890Z,1009.44
2019-05-11T02:02:55.898Z,1009.44
2019-05-11T02:03:55.864Z,1009.42
2019-05-11T02:04:55.861Z,1009.44
2019-05-11T02:05:55.855Z,1009.44
2019-05-11T02:06:55.862Z,1009.41
2019-05-11T02:07:55.825Z,1009.43
2019-05-11T02:08:55.820Z,1009.43
2019-05-11T02:09:55.851Z,1009.41
2019-05-11T02:10:55.792Z,1009.41
2019-05-11T02:11:55.786Z,1009.40
2019-05-11T02:12:55.812Z,1009.39
2019-05-11T02:13:55.762Z,1009.35
2019-05-11T02:14:55.754Z,1009.38
2019-05-11T02:15:55.747Z,1009.35
2019-05-11T02:16:55.741Z,1009.38
2019-05-11T02:17:55.733Z,1009.33
2019-05-11T02:18:55.800Z,1009.39
2019-05-11T02:19:55.707Z,1009.44
2019-05-11T02:20:55.692Z,1009.49
2019-05-11T02:21:55.688Z,1009.42
2019-05-11T02:22:55.678Z,1009.45
2019-05-11T02:23:55.663Z,1009.45
2019-05-11T02:24:55.679Z,1009.45
2019-05-11T02:25:55.641Z,1009.46
2019-05-11T02:26:55.686Z,1009.42
2019-05-11T02:27:55.630Z,1009.40
2019-05-11T02:28:55.623Z,1009.38
2019-05-11T02:29:55.612Z,1009.43
2019-05-11T02:30:55.625Z,1009.52
2019-05-11T02:31:55.588Z,1009.53
2019-05-11T02:32:55.572Z,1009.55
2019-05-11T02:33:55.559Z,1009.56
2019-05-11T02:34:55.556Z,1009.56
2019-05-11T02:35:55.540Z,1009.53
2019-05-11T02:36:55.558Z,1009.51
2019-05-11T02:37:55.514Z,1009.54
2019-05-11T02:38:55.509Z,1009.54
2019-05-11T02:39:55.494Z,1009.56
2019-05-11T02:40:55.481Z,1009.55
2019-05-11T02:41:55.480Z,1009.57
2019-05-11T02:42:55.512Z,1009.54
2019-05-11T02:43:55.464Z,1009.54
2019-05-11T02:44:55.443Z,1009.49
2019-05-11T02:45:55.433Z,1009.52
2019-05-11T02:46:55.422Z,1009.59
2019-05-11T02:47:55.416Z,1009.58
2019-05-11T02:48:55.433Z,1009.63
2019-05-11T02:49:55.394Z,1009.66
2019-05-11T02:50:55.382Z,1009.62
2019-05-11T02:51:55.374Z,1009.63
2019-05-11T02:52:55.368Z,1009.60
2019-05-11T02:53:55.352Z,1009.58
2019-05-11T02:54:55.390Z,1009.58
2019-05-11T02:55:55.335Z,1009.57
2019-05-11T02:56:55.316Z,1009.59
2019-05-11T02:57:55.318Z,1009.55
2019-05-11T02:58:55.299Z,1009.56
2019-05-11T02:59:55.284Z,1009.59
2019-05-11T03:00:55.302Z,1009.56
2019-05-11T03:01:55.276Z,1009.59
2019-05-11T03:02:55.258Z,1009.64
2019-05-11T03:03:55.251Z,1009.67
2019-05-11T03:04:55.251Z,1009.69
2019-05-11T03:05:55.227Z,1009.67
2019-05-11T03:06:55.247Z,1009.68
2019-05-11T03:07:55.210Z,1009.68
2019-05-11T03:08:55.206Z,1009.62
2019-05-11T03:09:55.207Z,1009.64
2019-05-11T03:10:55.200Z,1009.56
2019-05-11T03:11:56.436Z,1009.55
2019-05-11T03:12:55.175Z,1009.58
2019-05-11T03:13:55.151Z,1009.58
2019-05-11T03:14:55.149Z,1009.56
2019-05-11T03:15:55.120Z,1009.59
2019-05-11T03:16:55.106Z,1009.62
2019-05-11T03:17:55.180Z,1009.60
2019-05-11T03:18:55.094Z,1009.62
2019-05-11T03:19:55.091Z,1009.50
2019-05-11T03:20:55.067Z,1009.52
2019-05-11T03:21:55.064Z,1009.57
2019-05-11T03:22:55.052Z,1009.58
2019-05-11T03:23:55.063Z,1009.55
2019-05-11T03:24:55.026Z,1009.59
2019-05-11T03:25:55.019Z,1009.57
2019-05-11T03:26:55.005Z,1009.52
2019-05-11T03:27:54.992Z,1009.57
2019-05-11T03:28:55.002Z,1009.56
2019-05-11T03:29:59.930Z,1009.58
2019-05-11T03:30:56.004Z,1009.60
2019-05-11T03:31:54.961Z,1009.58
2019-05-11T03:32:55.002Z,1009.59
2019-05-11T03:33:54.951Z,1009.60
2019-05-11T03:34:54.940Z,1009.64
2019-05-11T03:35:54.936Z,1009.65
2019-05-11T03:36:54.910Z,1009.62
2019-05-11T03:37:54.905Z,1009.65
2019-05-11T03:38:54.896Z,1009.64
2019-05-11T03:39:54.874Z,1009.64
2019-05-11T03:40:54.871Z,1009.64
2019-05-11T03:42:12.963Z,1009.69
2019-05-11T03:42:55.856Z,1009.68
2019-05-11T03:43:54.833Z,1009.72
2019-05-11T03:44:54.828Z,1009.71
2019-05-11T03:45:54.810Z,1009.78
2019-05-11T03:46:54.801Z,1009.72
2019-05-11T03:47:54.828Z,1009.80
2019-05-11T03:48:54.778Z,1009.80
2019-05-11T03:49:54.778Z,1009.82
2019-05-11T03:50:54.757Z,1009.80
2019-05-11T03:51:54.758Z,1009.85
2019-05-11T03:52:54.736Z,1009.86
2019-05-11T03:53:54.751Z,1009.85
2019-05-11T03:54:54.718Z,1009.87
2019-05-11T03:55:54.740Z,1009.92
2019-05-11T03:56:54.693Z,1009.90
2019-05-11T03:57:54.683Z,1009.92
2019-05-11T03:58:54.679Z,1009.89
2019-05-11T03:59:54.686Z,1009.90
2019-05-11T04:00:54.656Z,1009.94
2019-05-11T04:01:54.642Z,1009.97
2019-05-11T04:02:54.641Z,1009.96
2019-05-11T04:03:54.621Z,1009.99
2019-05-11T04:04:54.621Z,1010.03
2019-05-11T04:05:54.631Z,1010.03
2019-05-11T04:06:54.590Z,1010.06
2019-05-11T04:07:54.602Z,1010.07
2019-05-11T04:08:54.582Z,1010.05
2019-05-11T04:09:54.561Z,1010.07
2019-05-11T04:10:54.549Z,1010.09
2019-05-11T04:11:54.565Z,1010.09
2019-05-11T04:12:54.546Z,1010.10
2019-05-11T04:13:54.528Z,1010.09
2019-05-11T04:14:54.515Z,1010.15
2019-05-11T04:15:54.504Z,1010.13
2019-05-11T04:16:54.487Z,1010.11
2019-05-11T04:17:54.495Z,1010.12
2019-05-11T04:18:54.466Z,1010.12
2019-05-11T04:19:54.461Z,1010.10
2019-05-11T04:20:54.473Z,1010.12
2019-05-11T04:21:54.431Z,1010.10
2019-05-11T04:22:54.425Z,1010.14
2019-05-11T04:23:54.436Z,1010.12
2019-05-11T04:24:54.421Z,1010.16
2019-05-11T04:25:54.401Z,1010.12
2019-05-11T04:26:54.385Z,1010.13
2019-05-11T04:27:54.370Z,1010.09
2019-05-11T04:28:54.361Z,1010.08
2019-05-11T04:29:54.386Z,1010.12
2019-05-11T04:30:54.353Z,1010.06
2019-05-11T04:31:54.333Z,1010.07
2019-05-11T04:32:54.318Z,1010.08
2019-05-11T04:33:54.309Z,1010.08
2019-05-11T04:34:54.316Z,1010.06
2019-05-11T04:35:54.323Z,1010.02
2019-05-11T04:36:54.285Z,1009.98
2019-05-11T04:37:54.291Z,1009.94
2019-05-11T04:38:54.258Z,1009.94
2019-05-11T04:39:54.274Z,1009.92
2019-05-11T04:40:54.248Z,1009.94
2019-05-11T04:41:54.256Z,1009.97
2019-05-11T04:42:56.197Z,1009.96
2019-05-11T04:43:54.227Z,1009.96
2019-05-11T04:44:54.206Z,1009.99
2019-05-11T04:45:54.198Z,1009.93
2019-05-11T04:46:54.174Z,1009.89
2019-05-11T04:47:54.282Z,1009.90
2019-05-11T04:48:54.151Z,1009.90
2019-05-11T04:49:54.243Z,1009.91
2019-05-11T04:50:54.137Z,1009.92
2019-05-11T04:51:54.129Z,1009.98
2019-05-11T04:52:54.122Z,1010.00
2019-05-11T04:53:54.115Z,1010.02
2019-05-11T04:54:54.111Z,1010.02
2019-05-11T04:55:54.091Z,1010.00
2019-05-11T04:56:54.088Z,1009.98
2019-05-11T04:57:54.087Z,1010.01
2019-05-11T04:58:54.083Z,1010.03
2019-05-11T04:59:54.045Z,1010.02
2019-05-11T05:00:54.086Z,1010.02
2019-05-11T05:01:54.030Z,1010.04
2019-05-11T05:02:54.004Z,1010.07
2019-05-11T05:03:56.401Z,1010.07
2019-05-11T05:04:55.019Z,1010.05
2019-05-11T05:05:53.979Z,1010.03
2019-05-11T05:07:00.029Z,1010.08
2019-05-11T05:08:08.524Z,1010.04
2019-05-11T05:08:58.200Z,1010.08
2019-05-11T05:09:54.941Z,1010.10
